sensor_id;sensor_type;location;lat;lon;timestamp;P1;durP1;ratioP1;P2;durP2;ratioP2
71566;SDS011;59403;47.456;19.120;2022-11-12T00:00:43;47.78;;;27.65;;
71566;SDS011;59403;47.456;19.120;2022-11-12T00:03:11;45.65;;;26.20;;
71566;SDS011;59403;47.456;19.120;2022-11-12T00:05:37;45.70;;;24.90;;
71566;SDS011;59403;47.456;19.120;2022-11-12T00:08:04;46.35;;;26.10;;
71566;SDS011;59403;47.456;19.120;2022-11-12T00:10:33;47.90;;;26.08;;
71566;SDS011;59403;47.456;19.120;2022-11-12T00:12:59;45.60;;;26.58;;
71566;SDS011;59403;47.456;19.120;2022-11-12T00:15:26;45.90;;;25.83;;
71566;SDS011;59403;47.456;19.120;2022-11-12T00:17:54;48.20;;;25.23;;
71566;SDS011;59403;47.456;19.120;2022-11-12T00:20:20;48.28;;;26.08;;
71566;SDS011;59403;47.456;19.120;2022-11-12T00:22:47;42.55;;;25.12;;
71566;SDS011;59403;47.456;19.120;2022-11-12T00:25:14;47.58;;;26.23;;
71566;SDS011;59403;47.456;19.120;2022-11-12T00:27:43;47.40;;;25.90;;
71566;SDS011;59403;47.456;19.120;2022-11-12T00:30:10;50.43;;;26.23;;
71566;SDS011;59403;47.456;19.120;2022-11-12T00:32:37;47.58;;;26.73;;
71566;SDS011;59403;47.456;19.120;2022-11-12T00:35:04;43.83;;;25.85;;
71566;SDS011;59403;47.456;19.120;2022-11-12T00:37:34;49.08;;;26.55;;
71566;SDS011;59403;47.456;19.120;2022-11-12T00:40:01;45.58;;;25.58;;
71566;SDS011;59403;47.456;19.120;2022-11-12T00:42:28;42.80;;;24.50;;
71566;SDS011;59403;47.456;19.120;2022-11-12T00:44:57;46.72;;;26.70;;
71566;SDS011;59403;47.456;19.120;2022-11-12T00:47:23;46.30;;;26.02;;
71566;SDS011;59403;47.456;19.120;2022-11-12T00:49:50;46.10;;;25.58;;
71566;SDS011;59403;47.456;19.120;2022-11-12T00:52:17;45.58;;;24.77;;
71566;SDS011;59403;47.456;19.120;2022-11-12T00:54:44;42.73;;;24.73;;
71566;SDS011;59403;47.456;19.120;2022-11-12T00:57:11;48.58;;;26.05;;
71566;SDS011;59403;47.456;19.120;2022-11-12T00:59:37;44.05;;;25.23;;
71566;SDS011;59403;47.456;19.120;2022-11-12T01:02:06;47.78;;;24.25;;
71566;SDS011;59403;47.456;19.120;2022-11-12T01:04:33;41.28;;;25.00;;
71566;SDS011;59403;47.456;19.120;2022-11-12T01:06:59;44.63;;;24.83;;
71566;SDS011;59403;47.456;19.120;2022-11-12T01:09:26;42.83;;;24.33;;
71566;SDS011;59403;47.456;19.120;2022-11-12T01:11:56;42.67;;;23.60;;
71566;SDS011;59403;47.456;19.120;2022-11-12T01:14:22;42.08;;;23.73;;
71566;SDS011;59403;47.456;19.120;2022-11-12T01:16:49;43.05;;;23.12;;
71566;SDS011;59403;47.456;19.120;2022-11-12T01:19:17;41.23;;;21.83;;
71566;SDS011;59403;47.456;19.120;2022-11-12T01:21:45;36.58;;;21.30;;
71566;SDS011;59403;47.456;19.120;2022-11-12T01:24:12;40.03;;;22.45;;
71566;SDS011;59403;47.456;19.120;2022-11-12T01:26:39;38.00;;;21.17;;
71566;SDS011;59403;47.456;19.120;2022-11-12T01:29:06;36.78;;;20.65;;
71566;SDS011;59403;47.456;19.120;2022-11-12T01:31:33;33.47;;;19.00;;
71566;SDS011;59403;47.456;19.120;2022-11-12T01:34:02;33.83;;;18.48;;
71566;SDS011;59403;47.456;19.120;2022-11-12T01:36:32;35.53;;;19.30;;
71566;SDS011;59403;47.456;19.120;2022-11-12T01:39:02;34.42;;;18.87;;
71566;SDS011;59403;47.456;19.120;2022-11-12T01:41:31;37.08;;;20.75;;
71566;SDS011;59403;47.456;19.120;2022-11-12T01:44:06;36.50;;;19.07;;
71566;SDS011;59403;47.456;19.120;2022-11-12T01:46:34;33.05;;;18.90;;
71566;SDS011;59403;47.456;19.120;2022-11-12T01:49:09;33.50;;;18.65;;
71566;SDS011;59403;47.456;19.120;2022-11-12T01:51:43;30.42;;;18.02;;
71566;SDS011;59403;47.456;19.120;2022-11-12T01:54:13;30.65;;;18.30;;
71566;SDS011;59403;47.456;19.120;2022-11-12T01:56:43;32.80;;;18.20;;
71566;SDS011;59403;47.456;19.120;2022-11-12T01:59:11;38.63;;;18.58;;
71566;SDS011;59403;47.456;19.120;2022-11-12T02:01:42;30.65;;;17.60;;
71566;SDS011;59403;47.456;19.120;2022-11-12T02:04:09;31.45;;;17.27;;
71566;SDS011;59403;47.456;19.120;2022-11-12T02:06:36;33.38;;;17.27;;
71566;SDS011;59403;47.456;19.120;2022-11-12T02:09:06;30.53;;;16.93;;
71566;SDS011;59403;47.456;19.120;2022-11-12T02:11:33;30.50;;;16.92;;
71566;SDS011;59403;47.456;19.120;2022-11-12T02:14:00;32.97;;;17.80;;
71566;SDS011;59403;47.456;19.120;2022-11-12T02:16:27;28.17;;;16.58;;
71566;SDS011;59403;47.456;19.120;2022-11-12T02:18:56;30.27;;;17.08;;
71566;SDS011;59403;47.456;19.120;2022-11-12T02:21:25;32.73;;;16.50;;
71566;SDS011;59403;47.456;19.120;2022-11-12T02:23:56;26.15;;;15.35;;
71566;SDS011;59403;47.456;19.120;2022-11-12T02:26:23;29.42;;;16.48;;
71566;SDS011;59403;47.456;19.120;2022-11-12T02:28:51;30.10;;;16.45;;
71566;SDS011;59403;47.456;19.120;2022-11-12T02:31:18;29.92;;;16.77;;
71566;SDS011;59403;47.456;19.120;2022-11-12T02:33:45;27.87;;;16.43;;
71566;SDS011;59403;47.456;19.120;2022-11-12T02:36:12;29.00;;;16.15;;
71566;SDS011;59403;47.456;19.120;2022-11-12T02:38:40;28.73;;;16.77;;
71566;SDS011;59403;47.456;19.120;2022-11-12T02:41:07;30.77;;;16.17;;
71566;SDS011;59403;47.456;19.120;2022-11-12T02:43:33;29.55;;;16.00;;
71566;SDS011;59403;47.456;19.120;2022-11-12T02:46:00;29.20;;;16.77;;
71566;SDS011;59403;47.456;19.120;2022-11-12T02:48:27;30.62;;;16.05;;
71566;SDS011;59403;47.456;19.120;2022-11-12T02:50:54;31.90;;;17.52;;
71566;SDS011;59403;47.456;19.120;2022-11-12T02:53:21;28.92;;;16.60;;
71566;SDS011;59403;47.456;19.120;2022-11-12T02:55:49;30.92;;;16.37;;
71566;SDS011;59403;47.456;19.120;2022-11-12T02:58:16;29.87;;;16.07;;
71566;SDS011;59403;47.456;19.120;2022-11-12T03:00:43;28.85;;;15.98;;
71566;SDS011;59403;47.456;19.120;2022-11-12T03:03:10;29.77;;;16.87;;
71566;SDS011;59403;47.456;19.120;2022-11-12T03:05:36;31.52;;;16.95;;
71566;SDS011;59403;47.456;19.120;2022-11-12T03:08:04;31.37;;;17.73;;
71566;SDS011;59403;47.456;19.120;2022-11-12T03:10:32;29.00;;;16.17;;
71566;SDS011;59403;47.456;19.120;2022-11-12T03:13:04;29.98;;;16.92;;
71566;SDS011;59403;47.456;19.120;2022-11-12T03:15:31;30.02;;;17.12;;
71566;SDS011;59403;47.456;19.120;2022-11-12T03:17:58;27.70;;;16.77;;
71566;SDS011;59403;47.456;19.120;2022-11-12T03:20:25;29.17;;;16.75;;
71566;SDS011;59403;47.456;19.120;2022-11-12T03:22:54;29.43;;;16.13;;
71566;SDS011;59403;47.456;19.120;2022-11-12T03:25:23;31.65;;;16.65;;
71566;SDS011;59403;47.456;19.120;2022-11-12T03:27:57;30.23;;;17.12;;
71566;SDS011;59403;47.456;19.120;2022-11-12T03:30:26;30.62;;;16.48;;
71566;SDS011;59403;47.456;19.120;2022-11-12T03:32:54;31.10;;;17.10;;
71566;SDS011;59403;47.456;19.120;2022-11-12T03:35:21;31.27;;;17.37;;
71566;SDS011;59403;47.456;19.120;2022-11-12T03:37:48;31.92;;;16.85;;
71566;SDS011;59403;47.456;19.120;2022-11-12T03:40:15;33.45;;;18.23;;
71566;SDS011;59403;47.456;19.120;2022-11-12T03:42:43;35.13;;;19.20;;
71566;SDS011;59403;47.456;19.120;2022-11-12T03:45:12;34.92;;;18.33;;
71566;SDS011;59403;47.456;19.120;2022-11-12T03:47:41;32.50;;;18.63;;
71566;SDS011;59403;47.456;19.120;2022-11-12T03:50:09;34.72;;;19.48;;
71566;SDS011;59403;47.456;19.120;2022-11-12T03:52:36;32.50;;;19.40;;
71566;SDS011;59403;47.456;19.120;2022-11-12T03:55:04;34.03;;;18.15;;
71566;SDS011;59403;47.456;19.120;2022-11-12T03:57:31;38.50;;;20.30;;
71566;SDS011;59403;47.456;19.120;2022-11-12T03:59:58;34.50;;;18.73;;
71566;SDS011;59403;47.456;19.120;2022-11-12T04:02:25;37.22;;;20.90;;
71566;SDS011;59403;47.456;19.120;2022-11-12T04:04:55;33.65;;;20.30;;
71566;SDS011;59403;47.456;19.120;2022-11-12T04:07:40;35.13;;;18.85;;
71566;SDS011;59403;47.456;19.120;2022-11-12T04:10:24;35.75;;;20.12;;
71566;SDS011;59403;47.456;19.120;2022-11-12T04:12:53;36.67;;;20.47;;
71566;SDS011;59403;47.456;19.120;2022-11-12T04:15:37;36.42;;;20.77;;
71566;SDS011;59403;47.456;19.120;2022-11-12T04:18:04;39.22;;;21.50;;
71566;SDS011;59403;47.456;19.120;2022-11-12T04:20:50;45.70;;;23.95;;
71566;SDS011;59403;47.456;19.120;2022-11-12T04:23:49;46.10;;;25.02;;
71566;SDS011;59403;47.456;19.120;2022-11-12T04:26:16;42.27;;;23.97;;
71566;SDS011;59403;47.456;19.120;2022-11-12T04:28:47;46.10;;;23.73;;
71566;SDS011;59403;47.456;19.120;2022-11-12T04:31:28;44.67;;;24.92;;
71566;SDS011;59403;47.456;19.120;2022-11-12T04:33:55;46.97;;;25.20;;
71566;SDS011;59403;47.456;19.120;2022-11-12T04:36:44;45.22;;;23.83;;
71566;SDS011;59403;47.456;19.120;2022-11-12T04:39:10;51.53;;;26.07;;
71566;SDS011;59403;47.456;19.120;2022-11-12T04:41:37;49.85;;;26.48;;
71566;SDS011;59403;47.456;19.120;2022-11-12T04:44:22;46.85;;;26.00;;
71566;SDS011;59403;47.456;19.120;2022-11-12T04:47:06;49.17;;;25.98;;
71566;SDS011;59403;47.456;19.120;2022-11-12T04:49:33;43.00;;;25.05;;
71566;SDS011;59403;47.456;19.120;2022-11-12T04:52:01;48.23;;;26.20;;
71566;SDS011;59403;47.456;19.120;2022-11-12T04:54:31;51.17;;;25.60;;
71566;SDS011;59403;47.456;19.120;2022-11-12T04:56:59;52.13;;;27.15;;
71566;SDS011;59403;47.456;19.120;2022-11-12T04:59:26;45.42;;;25.17;;
71566;SDS011;59403;47.456;19.120;2022-11-12T05:01:52;46.35;;;25.60;;
71566;SDS011;59403;47.456;19.120;2022-11-12T05:04:19;46.30;;;25.37;;
71566;SDS011;59403;47.456;19.120;2022-11-12T05:06:47;49.50;;;25.15;;
71566;SDS011;59403;47.456;19.120;2022-11-12T05:09:18;47.22;;;24.95;;
71566;SDS011;59403;47.456;19.120;2022-11-12T05:11:46;53.80;;;26.00;;
71566;SDS011;59403;47.456;19.120;2022-11-12T05:14:13;49.38;;;25.75;;
71566;SDS011;59403;47.456;19.120;2022-11-12T05:16:40;51.03;;;24.90;;
71566;SDS011;59403;47.456;19.120;2022-11-12T05:19:07;49.75;;;24.77;;
71566;SDS011;59403;47.456;19.120;2022-11-12T05:21:35;43.97;;;24.20;;
71566;SDS011;59403;47.456;19.120;2022-11-12T05:24:20;46.08;;;24.35;;
71566;SDS011;59403;47.456;19.120;2022-11-12T05:26:47;46.67;;;24.90;;
71566;SDS011;59403;47.456;19.120;2022-11-12T05:29:14;48.77;;;23.73;;
71566;SDS011;59403;47.456;19.120;2022-11-12T05:31:41;45.63;;;23.27;;
71566;SDS011;59403;47.456;19.120;2022-11-12T05:34:08;43.00;;;23.23;;
71566;SDS011;59403;47.456;19.120;2022-11-12T05:36:35;45.83;;;23.30;;
71566;SDS011;59403;47.456;19.120;2022-11-12T05:39:03;43.40;;;23.77;;
71566;SDS011;59403;47.456;19.120;2022-11-12T05:41:31;42.80;;;22.63;;
71566;SDS011;59403;47.456;19.120;2022-11-12T05:43:58;44.92;;;23.05;;
71566;SDS011;59403;47.456;19.120;2022-11-12T05:46:25;46.33;;;23.27;;
71566;SDS011;59403;47.456;19.120;2022-11-12T05:48:52;47.17;;;23.27;;
71566;SDS011;59403;47.456;19.120;2022-11-12T05:51:19;44.95;;;24.05;;
71566;SDS011;59403;47.456;19.120;2022-11-12T05:53:46;49.67;;;24.07;;
71566;SDS011;59403;47.456;19.120;2022-11-12T05:56:13;46.10;;;22.58;;
71566;SDS011;59403;47.456;19.120;2022-11-12T05:58:41;43.87;;;23.23;;
71566;SDS011;59403;47.456;19.120;2022-11-12T06:01:08;44.05;;;22.02;;
71566;SDS011;59403;47.456;19.120;2022-11-12T06:03:35;47.58;;;23.08;;
71566;SDS011;59403;47.456;19.120;2022-11-12T06:06:01;47.40;;;23.60;;
71566;SDS011;59403;47.456;19.120;2022-11-12T06:08:28;42.45;;;22.58;;
71566;SDS011;59403;47.456;19.120;2022-11-12T06:10:55;47.67;;;22.52;;
71566;SDS011;59403;47.456;19.120;2022-11-12T06:13:23;44.78;;;22.13;;
71566;SDS011;59403;47.456;19.120;2022-11-12T06:15:52;48.00;;;22.60;;
71566;SDS011;59403;47.456;19.120;2022-11-12T06:18:19;40.50;;;21.63;;
71566;SDS011;59403;47.456;19.120;2022-11-12T06:20:47;42.03;;;21.23;;
71566;SDS011;59403;47.456;19.120;2022-11-12T06:23:34;44.95;;;22.52;;
71566;SDS011;59403;47.456;19.120;2022-11-12T06:26:01;39.53;;;20.65;;
71566;SDS011;59403;47.456;19.120;2022-11-12T06:28:29;46.10;;;21.60;;
71566;SDS011;59403;47.456;19.120;2022-11-12T06:30:57;40.60;;;21.27;;
71566;SDS011;59403;47.456;19.120;2022-11-12T06:33:24;38.67;;;20.98;;
71566;SDS011;59403;47.456;19.120;2022-11-12T06:36:00;43.50;;;21.37;;
71566;SDS011;59403;47.456;19.120;2022-11-12T06:38:29;44.00;;;21.60;;
71566;SDS011;59403;47.456;19.120;2022-11-12T06:40:56;50.78;;;22.98;;
71566;SDS011;59403;47.456;19.120;2022-11-12T06:43:23;46.83;;;21.53;;
71566;SDS011;59403;47.456;19.120;2022-11-12T06:45:50;42.15;;;21.30;;
71566;SDS011;59403;47.456;19.120;2022-11-12T06:48:18;44.33;;;21.40;;
71566;SDS011;59403;47.456;19.120;2022-11-12T06:50:45;42.10;;;21.75;;
71566;SDS011;59403;47.456;19.120;2022-11-12T06:53:12;43.87;;;21.58;;
71566;SDS011;59403;47.456;19.120;2022-11-12T06:55:39;41.57;;;21.30;;
71566;SDS011;59403;47.456;19.120;2022-11-12T06:58:06;44.65;;;21.65;;
71566;SDS011;59403;47.456;19.120;2022-11-12T07:00:33;44.90;;;22.30;;
71566;SDS011;59403;47.456;19.120;2022-11-12T07:03:04;45.78;;;22.50;;
71566;SDS011;59403;47.456;19.120;2022-11-12T07:05:35;48.08;;;23.02;;
71566;SDS011;59403;47.456;19.120;2022-11-12T07:08:05;47.73;;;23.20;;
71566;SDS011;59403;47.456;19.120;2022-11-12T07:10:32;41.08;;;21.73;;
71566;SDS011;59403;47.456;19.120;2022-11-12T07:12:59;44.67;;;22.87;;
71566;SDS011;59403;47.456;19.120;2022-11-12T07:15:26;42.30;;;22.95;;
71566;SDS011;59403;47.456;19.120;2022-11-12T07:17:53;43.42;;;22.73;;
71566;SDS011;59403;47.456;19.120;2022-11-12T07:20:20;44.10;;;21.30;;
71566;SDS011;59403;47.456;19.120;2022-11-12T07:22:48;41.92;;;22.85;;
71566;SDS011;59403;47.456;19.120;2022-11-12T07:25:15;44.92;;;23.75;;
71566;SDS011;59403;47.456;19.120;2022-11-12T07:27:41;45.42;;;22.48;;
71566;SDS011;59403;47.456;19.120;2022-11-12T07:30:10;42.58;;;22.35;;
71566;SDS011;59403;47.456;19.120;2022-11-12T07:32:37;48.73;;;22.80;;
71566;SDS011;59403;47.456;19.120;2022-11-12T07:35:04;44.58;;;22.55;;
71566;SDS011;59403;47.456;19.120;2022-11-12T07:37:32;44.50;;;22.65;;
71566;SDS011;59403;47.456;19.120;2022-11-12T07:40:02;44.20;;;22.42;;
71566;SDS011;59403;47.456;19.120;2022-11-12T07:42:31;42.88;;;23.08;;
71566;SDS011;59403;47.456;19.120;2022-11-12T07:44:58;40.37;;;21.93;;
71566;SDS011;59403;47.456;19.120;2022-11-12T07:47:25;43.05;;;22.25;;
71566;SDS011;59403;47.456;19.120;2022-11-12T07:49:52;43.22;;;22.90;;
71566;SDS011;59403;47.456;19.120;2022-11-12T07:52:19;41.00;;;22.02;;
71566;SDS011;59403;47.456;19.120;2022-11-12T07:54:46;43.17;;;22.77;;
71566;SDS011;59403;47.456;19.120;2022-11-12T07:57:15;41.20;;;22.20;;
71566;SDS011;59403;47.456;19.120;2022-11-12T07:59:41;46.53;;;23.50;;
71566;SDS011;59403;47.456;19.120;2022-11-12T08:02:08;44.95;;;23.00;;
71566;SDS011;59403;47.456;19.120;2022-11-12T08:04:35;43.83;;;22.15;;
71566;SDS011;59403;47.456;19.120;2022-11-12T08:07:02;41.80;;;22.42;;
71566;SDS011;59403;47.456;19.120;2022-11-12T08:09:29;42.33;;;22.47;;
71566;SDS011;59403;47.456;19.120;2022-11-12T08:11:56;40.92;;;23.25;;
71566;SDS011;59403;47.456;19.120;2022-11-12T08:14:24;43.87;;;22.85;;
71566;SDS011;59403;47.456;19.120;2022-11-12T08:16:51;43.70;;;22.48;;
71566;SDS011;59403;47.456;19.120;2022-11-12T08:19:18;43.85;;;23.27;;
71566;SDS011;59403;47.456;19.120;2022-11-12T08:21:44;41.63;;;22.17;;
71566;SDS011;59403;47.456;19.120;2022-11-12T08:24:11;42.45;;;24.05;;
71566;SDS011;59403;47.456;19.120;2022-11-12T08:26:38;44.20;;;23.60;;
71566;SDS011;59403;47.456;19.120;2022-11-12T08:29:05;43.87;;;22.75;;
71566;SDS011;59403;47.456;19.120;2022-11-12T08:31:33;43.17;;;22.87;;
71566;SDS011;59403;47.456;19.120;2022-11-12T08:34:00;42.37;;;23.20;;
71566;SDS011;59403;47.456;19.120;2022-11-12T08:36:36;46.42;;;24.23;;
71566;SDS011;59403;47.456;19.120;2022-11-12T08:39:04;42.92;;;23.73;;
71566;SDS011;59403;47.456;19.120;2022-11-12T08:41:32;42.62;;;23.20;;
71566;SDS011;59403;47.456;19.120;2022-11-12T08:43:59;43.28;;;23.30;;
71566;SDS011;59403;47.456;19.120;2022-11-12T08:46:26;41.97;;;23.40;;
71566;SDS011;59403;47.456;19.120;2022-11-12T08:48:54;44.95;;;23.35;;
71566;SDS011;59403;47.456;19.120;2022-11-12T08:51:21;44.22;;;23.98;;
71566;SDS011;59403;47.456;19.120;2022-11-12T08:53:48;43.60;;;22.98;;
71566;SDS011;59403;47.456;19.120;2022-11-12T08:56:15;46.65;;;24.33;;
71566;SDS011;59403;47.456;19.120;2022-11-12T08:58:42;44.27;;;24.67;;
71566;SDS011;59403;47.456;19.120;2022-11-12T09:01:09;47.08;;;23.95;;
71566;SDS011;59403;47.456;19.120;2022-11-12T09:03:35;46.75;;;24.25;;
71566;SDS011;59403;47.456;19.120;2022-11-12T09:06:04;43.50;;;22.85;;
71566;SDS011;59403;47.456;19.120;2022-11-12T09:08:32;47.92;;;23.60;;
71566;SDS011;59403;47.456;19.120;2022-11-12T09:11:00;46.67;;;23.53;;
71566;SDS011;59403;47.456;19.120;2022-11-12T09:13:27;46.28;;;23.92;;
71566;SDS011;59403;47.456;19.120;2022-11-12T09:15:58;44.63;;;24.33;;
71566;SDS011;59403;47.456;19.120;2022-11-12T09:18:26;46.00;;;24.02;;
71566;SDS011;59403;47.456;19.120;2022-11-12T09:20:53;46.63;;;24.48;;
71566;SDS011;59403;47.456;19.120;2022-11-12T09:23:21;51.37;;;23.60;;
71566;SDS011;59403;47.456;19.120;2022-11-12T09:25:47;49.17;;;24.17;;
71566;SDS011;59403;47.456;19.120;2022-11-12T09:28:15;45.80;;;23.85;;
71566;SDS011;59403;47.456;19.120;2022-11-12T09:30:44;44.13;;;24.05;;
71566;SDS011;59403;47.456;19.120;2022-11-12T09:33:12;49.65;;;24.63;;
71566;SDS011;59403;47.456;19.120;2022-11-12T09:35:39;45.00;;;24.33;;
71566;SDS011;59403;47.456;19.120;2022-11-12T09:38:06;50.47;;;25.15;;
71566;SDS011;59403;47.456;19.120;2022-11-12T09:40:40;47.40;;;25.05;;
71566;SDS011;59403;47.456;19.120;2022-11-12T09:43:31;47.33;;;24.77;;
71566;SDS011;59403;47.456;19.120;2022-11-12T09:46:02;50.90;;;24.58;;
71566;SDS011;59403;47.456;19.120;2022-11-12T09:48:34;47.93;;;23.60;;
71566;SDS011;59403;47.456;19.120;2022-11-12T09:51:06;47.67;;;23.48;;
71566;SDS011;59403;47.456;19.120;2022-11-12T09:53:45;49.35;;;24.75;;
71566;SDS011;59403;47.456;19.120;2022-11-12T09:56:19;44.90;;;24.67;;
71566;SDS011;59403;47.456;19.120;2022-11-12T09:58:46;45.42;;;25.30;;
71566;SDS011;59403;47.456;19.120;2022-11-12T10:01:14;47.30;;;24.40;;
71566;SDS011;59403;47.456;19.120;2022-11-12T10:03:45;48.47;;;24.87;;
71566;SDS011;59403;47.456;19.120;2022-11-12T10:06:20;48.75;;;24.87;;
71566;SDS011;59403;47.456;19.120;2022-11-12T10:08:49;45.20;;;23.80;;
71566;SDS011;59403;47.456;19.120;2022-11-12T10:14:47;43.83;;;23.70;;
71566;SDS011;59403;47.456;19.120;2022-11-12T10:17:46;43.05;;;23.83;;
71566;SDS011;59403;47.456;19.120;2022-11-12T10:20:19;48.20;;;23.90;;
71566;SDS011;59403;47.456;19.120;2022-11-12T10:23:05;43.40;;;23.02;;
71566;SDS011;59403;47.456;19.120;2022-11-12T10:25:41;44.72;;;23.52;;
71566;SDS011;59403;47.456;19.120;2022-11-12T10:28:12;46.13;;;23.87;;
71566;SDS011;59403;47.456;19.120;2022-11-12T10:30:51;44.40;;;23.33;;
71566;SDS011;59403;47.456;19.120;2022-11-12T10:33:19;42.22;;;23.08;;
71566;SDS011;59403;47.456;19.120;2022-11-12T10:35:46;47.22;;;24.35;;
71566;SDS011;59403;47.456;19.120;2022-11-12T10:38:16;49.10;;;25.90;;
71566;SDS011;59403;47.456;19.120;2022-11-12T10:40:48;41.90;;;23.20;;
71566;SDS011;59403;47.456;19.120;2022-11-12T10:43:22;45.25;;;24.10;;
71566;SDS011;59403;47.456;19.120;2022-11-12T10:45:51;43.80;;;23.08;;
71566;SDS011;59403;47.456;19.120;2022-11-12T10:48:19;44.45;;;24.70;;
71566;SDS011;59403;47.456;19.120;2022-11-12T10:50:48;48.25;;;24.25;;
71566;SDS011;59403;47.456;19.120;2022-11-12T10:53:28;41.77;;;23.13;;
71566;SDS011;59403;47.456;19.120;2022-11-12T10:55:59;45.08;;;23.42;;
71566;SDS011;59403;47.456;19.120;2022-11-12T10:58:27;44.47;;;23.62;;
71566;SDS011;59403;47.456;19.120;2022-11-12T11:00:59;40.47;;;22.95;;
71566;SDS011;59403;47.456;19.120;2022-11-12T11:03:30;39.65;;;21.98;;
71566;SDS011;59403;47.456;19.120;2022-11-12T11:06:02;37.17;;;21.23;;
71566;SDS011;59403;47.456;19.120;2022-11-12T11:08:31;41.78;;;22.98;;
71566;SDS011;59403;47.456;19.120;2022-11-12T11:11:12;38.67;;;22.42;;
71566;SDS011;59403;47.456;19.120;2022-11-12T11:13:44;39.80;;;21.92;;
71566;SDS011;59403;47.456;19.120;2022-11-12T11:16:14;41.83;;;22.67;;
71566;SDS011;59403;47.456;19.120;2022-11-12T11:18:40;44.40;;;22.70;;
71566;SDS011;59403;47.456;19.120;2022-11-12T11:21:15;39.55;;;22.08;;
71566;SDS011;59403;47.456;19.120;2022-11-12T11:24:02;43.78;;;23.25;;
71566;SDS011;59403;47.456;19.120;2022-11-12T11:26:41;40.30;;;23.60;;
71566;SDS011;59403;47.456;19.120;2022-11-12T11:29:23;41.25;;;22.40;;
71566;SDS011;59403;47.456;19.120;2022-11-12T11:32:03;38.33;;;21.80;;
71566;SDS011;59403;47.456;19.120;2022-11-12T11:34:37;41.45;;;22.05;;
71566;SDS011;59403;47.456;19.120;2022-11-12T11:37:18;41.63;;;23.70;;
71566;SDS011;59403;47.456;19.120;2022-11-12T11:39:50;40.05;;;19.35;;
71566;SDS011;59403;47.456;19.120;2022-11-12T11:42:40;34.90;;;18.45;;
71566;SDS011;59403;47.456;19.120;2022-11-12T11:45:21;28.57;;;16.17;;
71566;SDS011;59403;47.456;19.120;2022-11-12T11:48:01;30.52;;;15.70;;
71566;SDS011;59403;47.456;19.120;2022-11-12T11:50:35;31.80;;;15.45;;
71566;SDS011;59403;47.456;19.120;2022-11-12T11:53:11;22.80;;;12.93;;
71566;SDS011;59403;47.456;19.120;2022-11-12T11:55:52;22.20;;;12.68;;
71566;SDS011;59403;47.456;19.120;2022-11-12T11:58:36;23.20;;;12.20;;
71566;SDS011;59403;47.456;19.120;2022-11-12T12:01:24;19.70;;;9.93;;
71566;SDS011;59403;47.456;19.120;2022-11-12T12:04:01;19.23;;;10.38;;
71566;SDS011;59403;47.456;19.120;2022-11-12T12:06:44;17.75;;;9.88;;
71566;SDS011;59403;47.456;19.120;2022-11-12T12:09:24;18.83;;;11.18;;
71566;SDS011;59403;47.456;19.120;2022-11-12T12:12:03;26.57;;;11.17;;
71566;SDS011;59403;47.456;19.120;2022-11-12T12:14:41;18.55;;;10.57;;
71566;SDS011;59403;47.456;19.120;2022-11-12T12:17:23;18.02;;;10.52;;
71566;SDS011;59403;47.456;19.120;2022-11-12T12:20:08;20.85;;;10.23;;
71566;SDS011;59403;47.456;19.120;2022-11-12T12:22:43;23.50;;;11.57;;
71566;SDS011;59403;47.456;19.120;2022-11-12T12:25:14;21.87;;;10.13;;
71566;SDS011;59403;47.456;19.120;2022-11-12T12:27:47;20.05;;;10.40;;
71566;SDS011;59403;47.456;19.120;2022-11-12T12:30:19;22.20;;;11.40;;
71566;SDS011;59403;47.456;19.120;2022-11-12T12:32:48;19.52;;;10.55;;
71566;SDS011;59403;47.456;19.120;2022-11-12T12:35:24;18.40;;;10.88;;
71566;SDS011;59403;47.456;19.120;2022-11-12T12:37:55;17.47;;;10.13;;
71566;SDS011;59403;47.456;19.120;2022-11-12T12:40:33;17.65;;;9.23;;
71566;SDS011;59403;47.456;19.120;2022-11-12T12:43:03;18.08;;;10.07;;
71566;SDS011;59403;47.456;19.120;2022-11-12T12:45:37;17.25;;;9.75;;
71566;SDS011;59403;47.456;19.120;2022-11-12T12:48:07;18.15;;;10.80;;
71566;SDS011;59403;47.456;19.120;2022-11-12T12:50:41;19.17;;;11.00;;
71566;SDS011;59403;47.456;19.120;2022-11-12T12:53:16;21.37;;;10.68;;
71566;SDS011;59403;47.456;19.120;2022-11-12T12:55:56;18.42;;;9.95;;
71566;SDS011;59403;47.456;19.120;2022-11-12T12:58:25;17.77;;;10.13;;
71566;SDS011;59403;47.456;19.120;2022-11-12T13:00:55;17.33;;;9.90;;
71566;SDS011;59403;47.456;19.120;2022-11-12T13:06:15;17.00;;;8.95;;
71566;SDS011;59403;47.456;19.120;2022-11-12T13:08:48;20.67;;;9.27;;
71566;SDS011;59403;47.456;19.120;2022-11-12T13:15:09;19.20;;;11.77;;
71566;SDS011;59403;47.456;19.120;2022-11-12T13:17:48;21.20;;;11.80;;
71566;SDS011;59403;47.456;19.120;2022-11-12T13:26:43;21.30;;;10.95;;
71566;SDS011;59403;47.456;19.120;2022-11-12T13:32:25;16.67;;;9.67;;
71566;SDS011;59403;47.456;19.120;2022-11-12T13:38:00;19.25;;;10.25;;
71566;SDS011;59403;47.456;19.120;2022-11-12T13:40:38;22.17;;;10.30;;
71566;SDS011;59403;47.456;19.120;2022-11-12T13:43:14;20.73;;;10.20;;
71566;SDS011;59403;47.456;19.120;2022-11-12T13:45:45;18.83;;;11.37;;
71566;SDS011;59403;47.456;19.120;2022-11-12T13:48:16;19.02;;;11.55;;
71566;SDS011;59403;47.456;19.120;2022-11-12T13:50:48;21.33;;;12.45;;
71566;SDS011;59403;47.456;19.120;2022-11-12T13:53:19;22.40;;;12.80;;
71566;SDS011;59403;47.456;19.120;2022-11-12T13:55:49;23.98;;;13.23;;
71566;SDS011;59403;47.456;19.120;2022-11-12T13:58:24;23.23;;;12.63;;
71566;SDS011;59403;47.456;19.120;2022-11-12T14:00:53;26.20;;;12.77;;
71566;SDS011;59403;47.456;19.120;2022-11-12T14:03:22;25.37;;;12.48;;
71566;SDS011;59403;47.456;19.120;2022-11-12T14:05:52;20.73;;;11.93;;
71566;SDS011;59403;47.456;19.120;2022-11-12T14:08:28;20.10;;;12.10;;
71566;SDS011;59403;47.456;19.120;2022-11-12T14:11:12;25.17;;;13.50;;
71566;SDS011;59403;47.456;19.120;2022-11-12T14:14:04;21.50;;;12.82;;
71566;SDS011;59403;47.456;19.120;2022-11-12T14:16:48;23.85;;;14.30;;
71566;SDS011;59403;47.456;19.120;2022-11-12T14:22:34;27.37;;;14.48;;
71566;SDS011;59403;47.456;19.120;2022-11-12T14:25:09;26.37;;;15.00;;
71566;SDS011;59403;47.456;19.120;2022-11-12T14:27:40;25.60;;;14.65;;
71566;SDS011;59403;47.456;19.120;2022-11-12T14:30:12;26.00;;;15.02;;
71566;SDS011;59403;47.456;19.120;2022-11-12T14:32:41;29.37;;;16.02;;
71566;SDS011;59403;47.456;19.120;2022-11-12T14:35:19;35.53;;;15.52;;
71566;SDS011;59403;47.456;19.120;2022-11-12T14:37:52;26.50;;;16.00;;
71566;SDS011;59403;47.456;19.120;2022-11-12T14:40:25;30.33;;;15.68;;
71566;SDS011;59403;47.456;19.120;2022-11-12T14:42:53;31.33;;;16.58;;
71566;SDS011;59403;47.456;19.120;2022-11-12T14:45:22;31.40;;;16.00;;
71566;SDS011;59403;47.456;19.120;2022-11-12T14:47:50;29.90;;;16.45;;
71566;SDS011;59403;47.456;19.120;2022-11-12T14:50:20;29.93;;;16.17;;
71566;SDS011;59403;47.456;19.120;2022-11-12T14:52:52;30.10;;;16.42;;